Prichard, West Virginia
Current Conditions -  °F | °C
As of 6:51 PM on Sunday 25 Jan 2015 (Local Time) from KHTS Reporting Station
Light Rain Light Rain  
Wind Chill: 39°   Ceiling: 5000
Heat Index: 42°   Visibility: 10mi
Dew Point: 37°   Wind: 5mph
Humidity: 82%   Direction: 40°NE
Pressure: 29.7"   Gusts: NA
Location:  38.24°N, 82.6°W
Report Text: KHTS 252351Z 04004KT 10SM -RA BKN050 OVC070 06/03 A2970 RMK AO2 RAB37 SLP060 P0000 60000 T00560028 10083 20056 53003
Loading
Personal Weather Stations






























Interactive Weather Map New forecast layout! Learn more

10-Day Weather Forecast

Advertisements
Track Severe Weather on mobile